ニューヨーク/JFK の空港の天気 - METARとTAF

ジョン・F・ケネディ国際空港 ( KJFK / JFK ) - アメリカ合衆国 ニューヨーク州ニューヨーク
飛行場実況気象(Metar)
観測時間09/25 04:51 EDT (09/25 08:51 UTC)
風向・風速北東 2m/s
視程10km以上
天気現象
なし
気温20.6℃
湿度70%
気圧1016.7hPa
METARKJFK 250851Z COR 04003KT 10SM CLR 21/15 A3002 RMK AO2 SLP167 T02061050 55002
過去の天気等 Google飛行場航空写真 Wunderground天気予報

過去48時間のMETAR

飛行場予報(TAF)
発表時間: 9/25 04:40 EDT (9/25 08:40 UTC)
予報対象時間: 25日5時 EDT ~ 26日8時 EDT
風向・風速東北東 2m/s
視程10km以上
なし
25日10時 EDT から
風向・風速東南東 2m/s
視程10km以上
なし
25日14時 EDT から
風向・風速東南東 5m/s
視程10km以上
少しの雲 雲底高度 7,620m
25日22時 EDT から
風向・風速南東 2m/s
視程8,050m
天気現象もや
全天の4割程度の雲 雲底高度 240m
全天の4割程度の雲 雲底高度 7,620m
26日3時 EDT から
風向・風速東北東 2m/s
視程3,220m
天気現象もや
全天の8割程度の雲 雲底高度 240m
KJFK 250840Z 2509/2612 07003KT P6SM SKC
FM251400 12004KT P6SM SKC
FM251800 12009KT P6SM FEW250
FM260200 13004KT 5SM BR SCT008 SCT250
FM260700 06004KT 2SM BR BKN008